VJC7238 VVNB-ZSPD
Flight info
| Callsign | VJC7238 |
|---|---|
| Flight time | N/A |
| Altitude | 35100 |
| Route | NAKHA3A NAKHA R474 WUY R343 SASAN SAS82A |
| Aircraft | A21N/M-SDE2E3FGHIRWXY/LB1 |
Departure
| Time | 2026-05-06 19:26 |
|---|---|
| Airport | Noi Bai International Airport (VVNB) |
Arrival
| Time | N/A |
|---|---|
| Airport | Shanghai Pudong International Airport (ZSPD) |
| Time | Latitude | Longitude | Altitude | Speed | Heading |
|---|---|---|---|---|---|
| 2026-05-06 19:05 | 21.21881 | 105.79349 | 54 ft | 0 kts | 197° |
| 2026-05-06 19:18 | 21.21895 | 105.79354 | 53 ft | 4 kts | 197° |
| 2026-05-06 19:18 | 21.21921 | 105.79363 | 51 ft | 0 kts | 197° |
| 2026-05-06 19:19 | 21.21943 | 105.79370 | 49 ft | 0 kts | 200° |
| 2026-05-06 19:19 | 21.21965 | 105.79384 | 50 ft | 0 kts | 230° |
| 2026-05-06 19:19 | 21.21975 | 105.79408 | 51 ft | 0 kts | 266° |
| 2026-05-06 19:19 | 21.21973 | 105.79436 | 53 ft | 0 kts | 286° |
| 2026-05-06 19:20 | 21.21971 | 105.79440 | 53 ft | 0 kts | 287° |
| 2026-05-06 19:22 | 21.21974 | 105.79431 | 52 ft | 3 kts | 287° |
| 2026-05-06 19:22 | 21.21985 | 105.79392 | 53 ft | 8 kts | 287° |
| 2026-05-06 19:22 | 21.22004 | 105.79328 | 54 ft | 10 kts | 288° |
| 2026-05-06 19:22 | 21.22027 | 105.79250 | 53 ft | 12 kts | 287° |
| 2026-05-06 19:23 | 21.22054 | 105.79158 | 55 ft | 14 kts | 287° |
| 2026-05-06 19:23 | 21.22142 | 105.79124 | 55 ft | 16 kts | 324° |
| 2026-05-06 19:23 | 21.22188 | 105.79013 | 55 ft | 17 kts | 290° |
| 2026-05-06 19:23 | 21.22226 | 105.78883 | 51 ft | 19 kts | 287° |
| 2026-05-06 19:24 | 21.22260 | 105.78762 | 55 ft | 11 kts | 287° |
| 2026-05-06 19:24 | 21.22285 | 105.78676 | 52 ft | 13 kts | 287° |
| 2026-05-06 19:24 | 21.22337 | 105.78613 | 55 ft | 10 kts | 354° |
| 2026-05-06 19:24 | 21.22378 | 105.78617 | 56 ft | 6 kts | 20° |
| 2026-05-06 19:25 | 21.22427 | 105.78636 | 52 ft | 9 kts | 19° |
| 2026-05-06 19:25 | 21.22452 | 105.78687 | 55 ft | 6 kts | 106° |
| 2026-05-06 19:25 | 21.22452 | 105.78689 | 56 ft | 0 kts | 107° |
| 2026-05-06 19:25 | 21.22444 | 105.78718 | 56 ft | 24 kts | 106° |
| 2026-05-06 19:26 | 21.22315 | 105.79170 | 57 ft | 100 kts | 107° |
| 2026-05-06 19:26 | 21.22045 | 105.80102 | 54 ft | 159 kts | 107° |
| 2026-05-06 19:26 | 21.21711 | 105.81300 | 496 ft | 165 kts | 107° |
| 2026-05-06 19:26 | 21.21383 | 105.82504 | 995 ft | 171 kts | 109° |
| 2026-05-06 19:27 | 21.21041 | 105.83719 | 1611 ft | 172 kts | 110° |
| 2026-05-06 19:27 | 21.20683 | 105.84993 | 2097 ft | 185 kts | 111° |
| 2026-05-06 19:27 | 21.20301 | 105.86369 | 2608 ft | 201 kts | 110° |
| 2026-05-06 19:27 | 21.19892 | 105.87857 | 3164 ft | 216 kts | 111° |
| 2026-05-06 19:28 | 21.19438 | 105.89485 | 3590 ft | 240 kts | 110° |
| 2026-05-06 19:28 | 21.18938 | 105.91283 | 4069 ft | 260 kts | 109° |
| 2026-05-06 19:28 | 21.18408 | 105.93193 | 4687 ft | 273 kts | 109° |
| 2026-05-06 19:28 | 21.17860 | 105.95173 | 5388 ft | 280 kts | 109° |
| 2026-05-06 19:29 | 21.17514 | 105.97265 | 6108 ft | 291 kts | 90° |
| 2026-05-06 19:29 | 21.17971 | 105.99357 | 6763 ft | 297 kts | 62° |
| 2026-05-06 19:29 | 21.19298 | 106.01038 | 7452 ft | 298 kts | 34° |
| 2026-05-06 19:29 | 21.21072 | 106.02193 | 8208 ft | 298 kts | 26° |
| 2026-05-06 19:30 | 21.22906 | 106.03257 | 8980 ft | 301 kts | 25° |
| 2026-05-06 19:30 | 21.24755 | 106.04340 | 9754 ft | 303 kts | 25° |
| 2026-05-06 19:30 | 21.26587 | 106.05434 | 10311 ft | 312 kts | 26° |
| 2026-05-06 19:30 | 21.28537 | 106.06621 | 10645 ft | 329 kts | 27° |
| 2026-05-06 19:31 | 21.30569 | 106.07871 | 10983 ft | 344 kts | 27° |
| 2026-05-06 19:31 | 21.32672 | 106.09176 | 11471 ft | 353 kts | 27° |
| 2026-05-06 19:31 | 21.36937 | 106.11838 | 12762 ft | 360 kts | 28° |
| 2026-05-06 19:32 | 21.39115 | 106.13198 | 13444 ft | 363 kts | 28° |
| 2026-05-06 19:32 | 21.41316 | 106.14574 | 14075 ft | 366 kts | 28° |
| 2026-05-06 19:32 | 21.43527 | 106.15958 | 14662 ft | 369 kts | 28° |
| 2026-05-06 19:32 | 21.45758 | 106.17356 | 15253 ft | 372 kts | 28° |
| 2026-05-06 19:33 | 21.47976 | 106.18743 | 15842 ft | 375 kts | 28° |
| 2026-05-06 19:33 | 21.50249 | 106.20164 | 16438 ft | 378 kts | 28° |
| 2026-05-06 19:33 | 21.52540 | 106.21597 | 17019 ft | 381 kts | 28° |
| 2026-05-06 19:33 | 21.54817 | 106.23023 | 17587 ft | 384 kts | 28° |
| 2026-05-06 19:34 | 21.57136 | 106.24476 | 18162 ft | 387 kts | 28° |
| 2026-05-06 19:34 | 21.59476 | 106.25944 | 18636 ft | 390 kts | 28° |
| 2026-05-06 19:34 | 21.61838 | 106.27430 | 19101 ft | 394 kts | 28° |
| 2026-05-06 19:34 | 21.64214 | 106.28919 | 19553 ft | 397 kts | 28° |
| 2026-05-06 19:35 | 21.66616 | 106.30423 | 20012 ft | 401 kts | 27° |
| 2026-05-06 19:35 | 21.69010 | 106.31924 | 20459 ft | 404 kts | 27° |
| 2026-05-06 19:35 | 21.71452 | 106.33459 | 20910 ft | 407 kts | 27° |
| 2026-05-06 19:35 | 21.73905 | 106.35001 | 21350 ft | 411 kts | 27° |
| 2026-05-06 19:36 | 21.76389 | 106.36566 | 21790 ft | 415 kts | 28° |
| 2026-05-06 19:36 | 21.78893 | 106.38143 | 22220 ft | 418 kts | 27° |
| 2026-05-06 19:36 | 21.81383 | 106.39707 | 22636 ft | 421 kts | 27° |
| 2026-05-06 19:36 | 21.83926 | 106.41306 | 23062 ft | 424 kts | 27° |
| 2026-05-06 19:37 | 21.86485 | 106.42919 | 23477 ft | 427 kts | 27° |
| 2026-05-06 19:37 | 21.89066 | 106.44543 | 23819 ft | 430 kts | 28° |
| 2026-05-06 19:37 | 21.91658 | 106.46179 | 24195 ft | 432 kts | 27° |
| 2026-05-06 19:37 | 21.94269 | 106.47826 | 24559 ft | 434 kts | 27° |
| 2026-05-06 19:38 | 21.96842 | 106.49545 | 24922 ft | 439 kts | 32° |
| 2026-05-06 19:38 | 21.99270 | 106.51565 | 25276 ft | 442 kts | 36° |
| 2026-05-06 19:38 | 22.01640 | 106.53633 | 25630 ft | 445 kts | 36° |
| 2026-05-06 19:38 | 22.04043 | 106.55742 | 25974 ft | 448 kts | 36° |
| 2026-05-06 19:39 | 22.06472 | 106.57869 | 26343 ft | 450 kts | 36° |
| 2026-05-06 19:39 | 22.08915 | 106.60005 | 26675 ft | 452 kts | 36° |
| 2026-05-06 19:39 | 22.11373 | 106.62149 | 27011 ft | 454 kts | 36° |
| 2026-05-06 19:39 | 22.13810 | 106.64276 | 27352 ft | 456 kts | 36° |
| 2026-05-06 19:40 | 22.16286 | 106.66439 | 27667 ft | 459 kts | 36° |
| 2026-05-06 19:40 | 22.18679 | 106.68744 | 27987 ft | 463 kts | 41° |
| 2026-05-06 19:40 | 22.20995 | 106.71194 | 28290 ft | 466 kts | 42° |
| 2026-05-06 19:40 | 22.23299 | 106.73654 | 28598 ft | 468 kts | 42° |
| 2026-05-06 19:41 | 22.25625 | 106.76138 | 28902 ft | 470 kts | 42° |
| 2026-05-06 19:41 | 22.27934 | 106.78598 | 29188 ft | 472 kts | 41° |
| 2026-05-06 19:41 | 22.30282 | 106.81105 | 29496 ft | 474 kts | 42° |
| 2026-05-06 19:41 | 22.32623 | 106.83629 | 29768 ft | 477 kts | 44° |
| 2026-05-06 19:42 | 22.34679 | 106.86474 | 30004 ft | 483 kts | 54° |
| 2026-05-06 19:42 | 22.36213 | 106.89730 | 30231 ft | 489 kts | 69° |
| 2026-05-06 19:42 | 22.37006 | 106.93270 | 30480 ft | 491 kts | 78° |
| 2026-05-06 19:42 | 22.37589 | 106.96912 | 30777 ft | 491 kts | 79° |
| 2026-05-06 19:43 | 22.38178 | 107.00553 | 31103 ft | 491 kts | 78° |
| 2026-05-06 19:43 | 22.38797 | 107.04181 | 31416 ft | 490 kts | 78° |
| 2026-05-06 19:43 | 22.39431 | 107.07762 | 31743 ft | 489 kts | 77° |
| 2026-05-06 19:43 | 22.40078 | 107.11396 | 32053 ft | 488 kts | 77° |
| 2026-05-06 19:44 | 22.40720 | 107.15001 | 32360 ft | 487 kts | 77° |
| 2026-05-06 19:44 | 22.41358 | 107.18535 | 32656 ft | 486 kts | 77° |
| 2026-05-06 19:44 | 22.42004 | 107.22133 | 32953 ft | 485 kts | 77° |
| 2026-05-06 19:44 | 22.42639 | 107.25716 | 33242 ft | 485 kts | 77° |
| 2026-05-06 19:45 | 22.43288 | 107.29287 | 33523 ft | 484 kts | 77° |
| 2026-05-06 19:45 | 22.43935 | 107.32866 | 33797 ft | 483 kts | 77° |
| 2026-05-06 19:45 | 22.44572 | 107.36433 | 34026 ft | 483 kts | 77° |
| 2026-05-06 19:45 | 22.45211 | 107.39991 | 34259 ft | 482 kts | 77° |
| 2026-05-06 19:46 | 22.45840 | 107.43504 | 34499 ft | 481 kts | 77° |
| 2026-05-06 19:46 | 22.46482 | 107.47066 | 34713 ft | 481 kts | 77° |
| 2026-05-06 19:46 | 22.47131 | 107.50612 | 34920 ft | 481 kts | 77° |
| 2026-05-06 19:46 | 22.47772 | 107.54163 | 34997 ft | 480 kts | 77° |
| 2026-05-06 19:47 | 22.49058 | 107.61258 | 34986 ft | 480 kts | 77° |
| 2026-05-06 19:47 | 22.50312 | 107.68354 | 34967 ft | 480 kts | 77° |
| 2026-05-06 19:48 | 22.51558 | 107.75403 | 34971 ft | 480 kts | 78° |
| 2026-05-06 19:48 | 22.52810 | 107.82514 | 34967 ft | 481 kts | 78° |
| 2026-05-06 19:49 | 22.54070 | 107.89586 | 34969 ft | 481 kts | 78° |
| 2026-05-06 19:49 | 22.55336 | 107.96695 | 34973 ft | 481 kts | 78° |
| 2026-05-06 19:50 | 22.56599 | 108.03798 | 34974 ft | 480 kts | 77° |
| 2026-05-06 19:50 | 22.58024 | 108.10875 | 34971 ft | 479 kts | 69° |
| 2026-05-06 19:51 | 22.59338 | 108.14121 | 34969 ft | 475 kts | 57° |
| 2026-05-06 19:51 | 22.61243 | 108.17004 | 34973 ft | 470 kts | 44° |
| 2026-05-06 19:51 | 22.66210 | 108.21531 | 34982 ft | 465 kts | 33° |
| 2026-05-06 19:52 | 22.71361 | 108.25736 | 34980 ft | 466 kts | 34° |
| 2026-05-06 19:52 | 22.76502 | 108.30038 | 34974 ft | 466 kts | 34° |
| 2026-05-06 19:53 | 22.81610 | 108.34345 | 34972 ft | 466 kts | 34° |
| 2026-05-06 19:53 | 22.86762 | 108.38697 | 34972 ft | 467 kts | 34° |
| 2026-05-06 19:54 | 22.91859 | 108.42993 | 34970 ft | 466 kts | 34° |
| 2026-05-06 19:54 | 22.96977 | 108.47313 | 34980 ft | 465 kts | 33° |
| 2026-05-06 19:55 | 23.02108 | 108.51632 | 34971 ft | 466 kts | 33° |
| 2026-05-06 19:55 | 23.07199 | 108.55931 | 34969 ft | 466 kts | 33° |
| 2026-05-06 19:56 | 23.12309 | 108.60261 | 34973 ft | 466 kts | 33° |
| 2026-05-06 19:56 | 23.17441 | 108.64607 | 34970 ft | 466 kts | 33° |
| 2026-05-06 19:57 | 23.22529 | 108.68920 | 34974 ft | 466 kts | 34° |
| 2026-05-06 19:57 | 23.27652 | 108.73268 | 34973 ft | 466 kts | 33° |
| 2026-05-06 19:58 | 23.32789 | 108.77618 | 34970 ft | 467 kts | 33° |
| 2026-05-06 19:58 | 23.37864 | 108.81921 | 34968 ft | 465 kts | 33° |
| 2026-05-06 19:59 | 23.42974 | 108.86260 | 34968 ft | 465 kts | 33° |
| 2026-05-06 19:59 | 23.48074 | 108.90583 | 34962 ft | 464 kts | 33° |
| 2026-05-06 20:00 | 23.53142 | 108.94890 | 34970 ft | 465 kts | 32° |
| 2026-05-06 20:00 | 23.58246 | 108.99247 | 34970 ft | 465 kts | 32° |
| 2026-05-06 20:01 | 23.63351 | 109.03594 | 34967 ft | 465 kts | 32° |
| 2026-05-06 20:01 | 23.68462 | 109.07952 | 34963 ft | 465 kts | 32° |
| 2026-05-06 20:02 | 23.73557 | 109.12311 | 34966 ft | 465 kts | 32° |
| 2026-05-06 20:02 | 23.78704 | 109.16445 | 34964 ft | 460 kts | 27° |
| 2026-05-06 20:03 | 23.84036 | 109.20315 | 34970 ft | 459 kts | 27° |
| 2026-05-06 20:03 | 23.89344 | 109.24174 | 34963 ft | 459 kts | 27° |
| 2026-05-06 20:04 | 23.94664 | 109.28066 | 34964 ft | 459 kts | 27° |
| 2026-05-06 20:04 | 23.99932 | 109.31927 | 34964 ft | 459 kts | 27° |
| 2026-05-06 20:05 | 24.05251 | 109.35830 | 34958 ft | 459 kts | 28° |
| 2026-05-06 20:05 | 24.10532 | 109.39705 | 34964 ft | 459 kts | 27° |
| 2026-05-06 20:06 | 24.15841 | 109.43604 | 34952 ft | 459 kts | 28° |
| 2026-05-06 20:06 | 24.21008 | 109.47411 | 34961 ft | 459 kts | 27° |
| 2026-05-06 20:07 | 24.26313 | 109.51320 | 34950 ft | 458 kts | 27° |
| 2026-05-06 20:07 | 24.31564 | 109.55196 | 34955 ft | 458 kts | 27° |
| 2026-05-06 20:08 | 24.36857 | 109.59096 | 34960 ft | 458 kts | 28° |
| 2026-05-06 20:08 | 24.41263 | 109.62343 | 34953 ft | 458 kts | 28° |
| 2026-05-06 20:09 | 24.46546 | 109.66275 | 34954 ft | 458 kts | 28° |
| 2026-05-06 20:09 | 24.51799 | 109.70178 | 34958 ft | 458 kts | 28° |
| 2026-05-06 20:10 | 24.57083 | 109.74098 | 34962 ft | 458 kts | 28° |
| 2026-05-06 20:10 | 24.62381 | 109.78034 | 34971 ft | 457 kts | 28° |
| 2026-05-06 20:11 | 24.67587 | 109.81915 | 34977 ft | 455 kts | 28° |
| 2026-05-06 20:11 | 24.72834 | 109.85803 | 34973 ft | 455 kts | 28° |
| 2026-05-06 20:12 | 24.78087 | 109.89710 | 34973 ft | 455 kts | 28° |
| 2026-05-06 20:12 | 24.83348 | 109.93593 | 34970 ft | 454 kts | 28° |
| 2026-05-06 20:13 | 24.88604 | 109.97488 | 34982 ft | 455 kts | 28° |
| 2026-05-06 20:13 | 24.93832 | 110.01384 | 34958 ft | 455 kts | 28° |
| 2026-05-06 20:14 | 24.99077 | 110.05283 | 34964 ft | 455 kts | 28° |
| 2026-05-06 20:14 | 25.04329 | 110.09195 | 34972 ft | 455 kts | 28° |
| 2026-05-06 20:15 | 25.09556 | 110.13087 | 34976 ft | 454 kts | 28° |
| 2026-05-06 20:15 | 25.14780 | 110.16978 | 34983 ft | 455 kts | 28° |
| 2026-05-06 20:16 | 25.20030 | 110.20897 | 34977 ft | 455 kts | 28° |
| 2026-05-06 20:16 | 25.25261 | 110.24790 | 34976 ft | 455 kts | 28° |
| 2026-05-06 20:17 | 25.30531 | 110.28693 | 34977 ft | 455 kts | 28° |
| 2026-05-06 20:17 | 25.35792 | 110.32605 | 34973 ft | 455 kts | 28° |
| 2026-05-06 20:18 | 25.41043 | 110.36527 | 34981 ft | 455 kts | 28° |
| 2026-05-06 20:18 | 25.46283 | 110.40423 | 34977 ft | 453 kts | 27° |
| 2026-05-06 20:19 | 25.51503 | 110.44258 | 34982 ft | 453 kts | 27° |
| 2026-05-06 20:19 | 25.56770 | 110.48093 | 34993 ft | 451 kts | 25° |
| 2026-05-06 20:20 | 25.61530 | 110.51383 | 34982 ft | 449 kts | 25° |
| 2026-05-06 20:20 | 25.66816 | 110.55052 | 34982 ft | 450 kts | 25° |
| 2026-05-06 20:21 | 25.72121 | 110.58735 | 34972 ft | 450 kts | 26° |
| 2026-05-06 20:21 | 25.77457 | 110.62421 | 34980 ft | 450 kts | 25° |
| 2026-05-06 20:22 | 25.82782 | 110.66010 | 34972 ft | 450 kts | 24° |
| 2026-05-06 20:22 | 25.88140 | 110.69627 | 34982 ft | 450 kts | 25° |
| 2026-05-06 20:23 | 25.90656 | 110.71757 | 34980 ft | 463 kts | 39° |
| 2026-05-06 20:23 | 25.92628 | 110.74657 | 34971 ft | 476 kts | 56° |
| 2026-05-06 20:23 | 25.93844 | 110.78059 | 34974 ft | 486 kts | 73° |
| 2026-05-06 20:23 | 25.94486 | 110.81763 | 34993 ft | 490 kts | 77° |
| 2026-05-06 20:24 | 25.95729 | 110.89240 | 34970 ft | 490 kts | 75° |
| 2026-05-06 20:24 | 25.96646 | 110.92868 | 34965 ft | 485 kts | 64° |
| 2026-05-06 20:24 | 25.98149 | 110.96186 | 34960 ft | 476 kts | 51° |
| 2026-05-06 20:25 | 26.00197 | 110.99034 | 34960 ft | 467 kts | 39° |
| 2026-05-06 20:25 | 26.02639 | 111.01286 | 34968 ft | 457 kts | 27° |
| 2026-05-06 20:25 | 26.08063 | 111.04930 | 34967 ft | 454 kts | 24° |
| 2026-05-06 20:26 | 26.13474 | 111.08546 | 34957 ft | 455 kts | 25° |
| 2026-05-06 20:26 | 26.18897 | 111.12233 | 34949 ft | 458 kts | 25° |
| 2026-05-06 20:27 | 26.24323 | 111.15938 | 34957 ft | 459 kts | 25° |
| 2026-05-06 20:27 | 26.28830 | 111.19006 | 34956 ft | 459 kts | 25° |